Terminal Aerodrome Forecast
Issued by NWS

Home | Current Version | Previous Version | Text Only | Print | Product List | Glossary On
Versions: 1 2 3 4 5 6 7 8 9 10 11 12 13 14
000
FTUS46 KOTX 271248 AAA
TAFSFF
TAF AMD
KSFF 271248Z 2713/2812 20009KT P6SM VCSH FEW030 BKN070 BKN100
     FM271700 20011G18KT P6SM SCT070 SCT200
     FM272100 22008G15KT P6SM BKN070
     FM280200 22006KT P6SM SCT070
     FM280700 VRB04KT P6SM FEW070 SCT150=

USA.gov is the U.S. government's official web portal to all federal, state and local government web resources and services.